Time;durP1;ratioP1;P1;durP2;ratioP2;P2;SDS_P1;SDS_P2;PMS_P1;PMS_P2;Temp;Humidity;BMP_temperature;BMP_pressure;BME280_temperature;BME280_humidity;BME280_pressure;Samples;Min_cycle;Max_cycle;Signal;HPM_P1;HPM_P2
2023/10/07 00:01:11;;;;;;;;;18.33;13.00;;;;;12.90;100.00;102476.63;5027918;28;45515;-76
2023/10/07 00:03:38;;;;;;;;;18.33;15.33;;;;;12.85;100.00;102467.94;5031324;28;45406;-76
2023/10/07 00:06:09;;;;;;;;;18.00;17.00;;;;;12.91;100.00;102474.84;5039265;28;47651;-75
2023/10/07 00:08:35;;;;;;;;;18.75;16.75;;;;;12.93;100.00;102465.91;5036000;28;45358;-74
2023/10/07 00:11:01;;;;;;;;;18.00;13.67;;;;;12.90;100.00;102459.81;5031092;28;45422;-75
2023/10/07 00:13:30;;;;;;;;;18.00;16.67;;;;;12.96;100.00;102460.50;5035417;28;45522;-75
2023/10/07 00:15:56;;;;;;;;;15.00;15.00;;;;;12.85;100.00;102446.72;5025200;28;45525;-75
2023/10/07 00:18:23;;;;;;;;;18.67;16.00;;;;;12.94;100.00;102462.34;5033298;28;45423;-75
2023/10/07 00:20:58;;;;;;;;;13.67;12.67;;;;;12.93;100.00;102467.69;5026130;28;45343;-75
2023/10/07 00:23:27;;;;;;;;;15.67;14.00;;;;;12.89;100.00;102466.91;5025978;28;45614;-75
2023/10/07 00:25:54;;;;;;;;;11.33;10.00;;;;;12.82;100.00;102459.19;5037734;28;45454;-75
2023/10/07 00:28:35;;;;;;;;;16.67;13.00;;;;;12.84;100.00;102467.97;5038587;28;45492;-75
2023/10/07 00:31:12;;;;;;;;;18.00;12.00;;;;;12.80;100.00;102472.50;5031760;28;45519;-75
2023/10/07 00:33:50;;;;;;;;;13.00;13.00;;;;;12.75;100.00;102471.78;5034773;28;45509;-75
2023/10/07 00:36:27;;;;;;;;;15.67;14.67;;;;;12.72;100.00;102468.34;5020820;28;45344;-75
2023/10/07 00:38:54;;;;;;;;;16.00;14.00;;;;;12.74;100.00;102466.50;5023603;28;45436;-75
2023/10/07 00:41:21;;;;;;;;;13.00;11.50;;;;;12.66;100.00;102450.81;5032236;28;45587;-76
2023/10/07 00:43:53;;;;;;;;;16.00;14.00;;;;;12.48;100.00;102420.38;5034598;28;45426;-75
2023/10/07 00:46:28;;;;;;;;;19.00;15.33;;;;;12.68;100.00;102464.91;5021321;28;45808;-75
2023/10/07 00:48:58;;;;;;;;;13.33;13.33;;;;;12.59;100.00;102456.34;5030963;28;45516;-76
2023/10/07 00:51:33;;;;;;;;;13.00;13.00;;;;;12.64;100.00;102468.56;5022970;28;45316;-75
2023/10/07 00:55:09;;;;;;;;;13.00;13.00;;;;;12.62;100.00;102464.22;5024138;28;45369;-74
2023/10/07 00:57:08;;;;;;;;;18.33;15.67;;;;;12.62;100.00;102464.22;5027455;28;46075;-74
2023/10/07 00:59:36;;;;;;;;;14.67;13.00;;;;;12.53;100.00;102446.78;5027934;28;45308;-75
2023/10/07 01:02:06;;;;;;;;;15.33;13.67;;;;;12.59;100.00;102459.88;5027023;28;45497;-75
2023/10/07 01:04:40;;;;;;;;;16.67;14.67;;;;;12.59;100.00;102453.69;5048899;28;45492;-75
2023/10/07 01:07:06;;;;;;;;;14.00;11.67;;;;;12.54;100.00;102446.72;5033781;28;47242;-75
2023/10/07 01:09:32;;;;;;;;;15.00;12.67;;;;;12.48;100.00;102436.31;5029401;28;45458;-76
2023/10/07 01:11:57;;;;;;;;;21.00;13.00;;;;;12.51;100.00;102441.50;5036841;28;45406;-75
2023/10/07 01:14:28;;;;;;;;;13.00;11.00;;;;;12.53;100.00;102444.13;5032077;28;45606;-75
2023/10/07 01:16:53;;;;;;;;;14.33;14.00;;;;;12.48;100.00;102436.31;5026754;28;45414;-74
2023/10/07 01:19:27;;;;;;;;;16.33;16.33;;;;;12.49;100.00;102440.69;5042791;28;45446;-75
2023/10/07 01:21:55;;;;;;;;;12.00;12.00;;;;;12.43;100.00;102426.75;5036031;28;45671;-74
2023/10/07 01:25:06;;;;;;;;;11.00;11.00;;;;;12.22;100.00;102395.50;5028550;28;45500;-74
2023/10/07 01:30:17;;;;;;;;;13.33;12.00;;;;;12.38;100.00;102415.38;5019983;28;45754;-75
2023/10/07 01:32:53;;;;;;;;;12.00;9.67;;;;;12.22;100.00;102398.16;5035562;28;45525;-74
2023/10/07 01:35:25;;;;;;;;;12.33;12.00;;;;;12.36;100.00;102404.81;5037271;28;45513;-74
2023/10/07 01:38:07;;;;;;;;;12.00;10.67;;;;;12.34;100.00;102405.75;5038355;28;45409;-74
2023/10/07 01:43:16;;;;;;;;;12.00;10.00;;;;;12.16;100.00;102385.94;5031691;28;45545;-74
2023/10/07 01:45:42;;;;;;;;;16.00;13.33;;;;;12.28;100.00;102401.50;5046470;28;45724;-74
2023/10/07 01:48:08;;;;;;;;;11.00;11.00;;;;;12.28;100.00;102404.16;5023634;28;47786;-74
2023/10/07 01:50:40;;;;;;;;;14.33;11.00;;;;;12.21;100.00;102407.03;5020171;28;45681;-74
2023/10/07 01:53:07;;;;;;;;;12.33;10.33;;;;;12.26;100.00;102402.47;5035093;28;45435;-74
2023/10/07 01:55:36;;;;;;;;;12.00;12.00;;;;;12.17;100.00;102384.16;5032704;28;45356;-74
2023/10/07 01:58:02;;;;;;;;;12.67;11.33;;;;;12.19;100.00;102399.13;5025727;28;45577;-75
2023/10/07 02:00:42;;;;;;;;;14.67;13.00;;;;;12.11;100.00;102390.50;5032197;28;45442;-74
2023/10/07 02:03:13;;;;;;;;;14.00;13.00;;;;;12.16;100.00;102404.50;5030815;28;45592;-74
2023/10/07 02:05:41;;;;;;;;;14.67;14.00;;;;;12.14;100.00;102406.31;5021187;28;45376;-74
2023/10/07 02:08:12;;;;;;;;;14.67;10.33;;;;;12.26;100.00;102439.59;5029275;28;45384;-75
2023/10/07 02:10:41;;;;;;;;;13.00;10.67;;;;;12.26;100.00;102429.88;5038089;28;45800;-75
2023/10/07 02:13:08;;;;;;;;;14.67;11.00;;;;;12.20;100.00;102418.56;5031704;28;45508;-74
2023/10/07 02:15:37;;;;;;;;;13.00;11.67;;;;;12.26;100.00;102439.59;5027501;28;45779;-74
2023/10/07 02:18:04;;;;;;;;;13.67;12.00;;;;;12.10;100.00;102410.00;5031248;28;45501;-75
2023/10/07 02:20:37;;;;;;;;;12.33;11.33;;;;;12.09;100.00;102412.69;5030506;28;45656;-73
2023/10/07 02:23:11;;;;;;;;;13.67;12.33;;;;;12.26;100.00;102444.91;5029988;28;45391;-74
2023/10/07 02:25:38;;;;;;;;;16.00;12.33;;;;;12.21;100.00;102437.06;5025665;28;45543;-74
2023/10/07 02:28:05;;;;;;;;;13.00;13.00;;;;;12.06;100.00;102418.06;5026366;28;46067;-74
2023/10/07 02:30:38;;;;;;;;;13.00;11.33;;;;;12.20;100.00;102432.69;5031281;28;45466;-75
2023/10/07 02:33:08;;;;;;;;;15.00;11.00;;;;;11.75;100.00;102355.25;5021235;28;45361;-76
2023/10/07 02:35:36;;;;;;;;;14.00;12.00;;;;;12.23;100.00;102445.88;5022725;28;45305;-75
2023/10/07 02:38:03;;;;;;;;;14.33;12.00;;;;;12.13;100.00;102428.47;5025726;28;45400;-74
2023/10/07 02:40:48;;;;;;;;;10.33;10.33;;;;;12.15;100.00;102428.41;5024540;28;45485;-74
2023/10/07 02:43:15;;;;;;;;;16.33;12.00;;;;;12.20;100.00;102432.69;5022472;28;45465;-74
2023/10/07 02:45:44;;;;;;;;;15.00;11.33;;;;;12.04;100.00;102410.16;5036479;28;45674;-74
2023/10/07 02:48:11;;;;;;;;;11.33;11.33;;;;;12.15;100.00;102431.06;5030179;28;45702;-74
2023/10/07 02:50:40;;;;;;;;;12.33;12.33;;;;;12.16;100.00;102439.00;5026669;28;45506;-75
2023/10/07 02:53:12;;;;;;;;;13.00;13.00;;;;;12.09;100.00;102415.31;5039944;28;45339;-75
2023/10/07 02:55:58;;;;;;;;;13.67;10.67;;;;;12.06;100.00;102405.69;5027700;28;45388;-74
2023/10/07 02:58:32;;;;;;;;;9.00;7.67;;;;;11.99;100.00;102389.06;5032040;28;46192;-74
2023/10/07 03:01:10;;;;;;;;;16.00;13.67;;;;;12.09;100.00;102408.25;5025078;28;45534;-73
2023/10/07 03:03:38;;;;;;;;;15.33;12.00;;;;;12.04;100.00;102399.56;5036673;28;45501;-74
2023/10/07 03:06:07;;;;;;;;;11.00;10.00;;;;;12.02;100.00;102412.84;5025600;28;45487;-74
2023/10/07 03:08:59;;;;;;;;;11.67;10.67;;;;;12.07;100.00;102422.47;5027642;28;46083;-75
2023/10/07 03:11:35;;;;;;;;;14.67;12.33;;;;;12.15;100.00;102436.38;5025573;28;45839;-75
2023/10/07 03:14:02;;;;;;;;;16.33;13.67;;;;;12.01;100.00;102418.19;5049672;28;45617;-74
2023/10/07 03:16:28;;;;;;;;;16.00;14.67;;;;;12.02;100.00;102425.22;5035906;28;45488;-75
2023/10/07 03:24:11;;;;;;;;;15.67;14.33;;;;;12.01;100.00;102427.00;5031991;28;45555;-74
2023/10/07 03:26:39;;;;;;;;;19.33;18.00;;;;;12.04;100.00;102422.56;5034998;28;45414;-74
2023/10/07 03:29:05;;;;;;;;;19.00;18.00;;;;;12.05;100.00;102424.28;5033838;28;45524;-73
2023/10/07 03:31:35;;;;;;;;;16.75;14.25;;;;;12.14;100.00;102443.44;5027526;28;45420;-74
2023/10/07 03:34:02;;;;;;;;;16.00;13.00;;;;;12.07;100.00;102433.06;5051253;28;45818;-76
2023/10/07 03:36:48;;;;;;;;;17.67;16.67;;;;;11.98;100.00;102413.84;5031834;28;45458;-77
2023/10/07 03:41:55;;;;;;;;;16.25;14.75;;;;;12.13;100.00;102444.38;5032869;28;46791;-73
2023/10/07 03:44:25;;;;;;;;;16.00;14.00;;;;;12.11;100.00;102445.31;5033244;28;45562;-77
2023/10/07 03:46:54;;;;;;;;;20.50;17.50;;;;;12.04;100.00;102433.16;5026453;28;45540;-75
2023/10/07 03:49:21;;;;;;;;;16.00;16.00;;;;;12.02;100.00;102436.72;5047165;28;46048;-75
2023/10/07 03:52:12;;;;;;;;;15.25;14.00;;;;;12.10;100.00;102439.16;5035637;28;45882;-74
2023/10/07 03:54:40;;;;;;;;;17.00;17.00;;;;;11.97;100.00;102430.69;5028486;28;46370;-77
2023/10/07 03:57:07;;;;;;;;;16.67;15.00;;;;;11.96;100.00;102415.69;5022587;28;45521;-77
2023/10/07 03:59:34;;;;;;;;;12.75;12.75;;;;;12.12;100.00;102436.47;5035678;28;47426;-76
2023/10/07 04:02:12;;;;;;;;;15.67;13.00;;;;;12.06;100.00;102421.59;5023197;28;45376;-76
2023/10/07 04:04:41;;;;;;;;;13.33;13.33;;;;;11.98;100.00;102410.31;5027704;28;45594;-76
2023/10/07 04:07:07;;;;;;;;;15.33;14.00;;;;;12.12;100.00;102439.97;5044531;28;45456;-76
2023/10/07 04:09:33;;;;;;;;;16.00;12.33;;;;;11.88;100.00;102392.91;5028205;28;47178;-76
2023/10/07 04:11:59;;;;;;;;;17.75;16.75;;;;;12.08;100.00;102440.97;5024476;28;45359;-76
2023/10/07 04:14:27;;;;;;;;;15.00;13.67;;;;;12.09;100.00;102436.53;5033078;28;45356;-77
2023/10/07 04:17:00;;;;;;;;;16.75;15.75;;;;;11.96;100.00;102412.16;5036687;28;45738;-77
2023/10/07 04:21:51;;;;;;;;;15.00;11.67;;;;;11.94;100.00;102412.16;5031906;28;45540;-75
2023/10/07 04:24:20;;;;;;;;;13.00;12.00;;;;;12.02;100.00;102428.75;5030243;28;45458;-76
2023/10/07 04:27:02;;;;;;;;;18.00;14.33;;;;;11.96;100.00;102423.63;5032034;28;45566;-77
2023/10/07 04:29:28;;;;;;;;;12.00;11.00;;;;;11.95;100.00;102439.56;5024900;28;46537;-77
2023/10/07 04:31:54;;;;;;;;;16.00;15.67;;;;;11.86;100.00;102408.00;5035800;28;45368;-75
2023/10/07 04:34:24;;;;;;;;;16.00;14.00;;;;;11.75;100.00;102395.03;5038315;28;45400;-77
2023/10/07 04:39:39;;;;;;;;;13.33;13.33;;;;;11.83;100.00;102418.69;5032537;28;45538;-76
2023/10/07 04:42:14;;;;;;;;;16.33;13.00;;;;;11.77;100.00;102409.13;5023971;28;45510;-76
2023/10/07 04:50:00;;;;;;;;;4.50;4.50;;;;;11.66;100.00;102403.19;5020651;28;45448;-75
2023/10/07 04:52:30;;;;;;;;;19.50;15.50;;;;;11.76;100.00;102422.41;5041069;28;45324;-76
2023/10/07 04:54:58;;;;;;;;;15.67;14.00;;;;;11.82;100.00;102432.84;5025915;28;45424;-77
2023/10/07 04:57:44;;;;;;;;;14.33;12.33;;;;;11.76;100.00;102427.72;5033267;28;45907;-76
2023/10/07 05:00:27;;;;;;;;;16.75;16.75;;;;;11.72;100.00;102418.09;5019550;28;46573;-76
2023/10/07 05:02:59;;;;;;;;;16.33;13.00;;;;;11.78;100.00;102428.56;5034964;28;45366;-75
2023/10/07 05:05:29;;;;;;;;;14.67;13.33;;;;;11.63;100.00;102408.56;5024519;28;46100;-76
2023/10/07 05:08:08;;;;;;;;;14.00;14.00;;;;;11.74;100.00;102434.84;5019539;28;45309;-77
2023/10/07 05:10:41;;;;;;;;;17.33;12.33;;;;;11.71;100.00;102442.88;5026607;28;45928;-76
2023/10/07 05:13:07;;;;;;;;;15.33;14.00;;;;;11.72;100.00;102442.81;5023716;28;46815;-76
2023/10/07 05:15:38;;;;;;;;;13.67;12.00;;;;;11.52;100.00;102412.44;5043758;28;45645;-76
2023/10/07 05:18:07;;;;;;;;;17.67;14.00;;;;;11.61;100.00;102421.00;5029790;28;45308;-77
2023/10/07 05:20:36;;;;;;;;;17.67;16.00;;;;;11.69;100.00;102436.69;5020225;28;46578;-76
2023/10/07 05:23:02;;;;;;;;;13.00;11.33;;;;;11.67;100.00;102444.69;5036639;28;45775;-76
2023/10/07 05:25:27;;;;;;;;;14.67;13.33;;;;;11.60;100.00;102432.50;5032642;28;45463;-76
2023/10/07 05:27:52;;;;;;;;;15.00;11.33;;;;;11.47;100.00;102409.88;5032761;28;45525;-76
2023/10/07 05:30:18;;;;;;;;;13.67;12.67;;;;;11.61;100.00;102436.03;5036443;28;45500;-76
2023/10/07 05:32:46;;;;;;;;;16.00;15.00;;;;;11.65;100.00;102443.00;5030208;28;45604;-76
2023/10/07 05:35:14;;;;;;;;;16.00;12.33;;;;;11.65;100.00;102441.19;5029054;28;45309;-76
2023/10/07 05:37:41;;;;;;;;;13.67;12.67;;;;;11.56;100.00;102427.31;5019877;28;45662;-76
2023/10/07 05:40:07;;;;;;;;;15.67;10.00;;;;;11.44;100.00;102409.97;5019051;28;45276;-76
2023/10/07 05:42:33;;;;;;;;;15.33;14.00;;;;;11.56;100.00;102433.47;5034005;28;45292;-76
2023/10/07 05:44:59;;;;;;;;;15.67;15.67;;;;;11.53;100.00;102420.31;5019302;28;45422;-75
2023/10/07 05:47:25;;;;;;;;;15.00;13.67;;;;;11.52;100.00;102420.38;5023371;28;45530;-76
2023/10/07 05:49:55;;;;;;;;;16.33;15.33;;;;;11.53;100.00;102420.31;5026977;28;45856;-76
2023/10/07 05:52:20;;;;;;;;;13.00;13.00;;;;;11.53;100.00;102425.63;5022548;28;45383;-76
2023/10/07 05:54:46;;;;;;;;;13.00;11.33;;;;;11.50;100.00;102420.41;5033300;28;45491;-77
2023/10/07 05:57:13;;;;;;;;;17.00;14.00;;;;;11.59;100.00;102441.34;5034115;28;45378;-76
2023/10/07 05:59:39;;;;;;;;;12.33;9.33;;;;;11.58;100.00;102434.34;5032636;28;47276;-77
2023/10/07 06:02:12;;;;;;;;;12.33;11.00;;;;;11.59;100.00;102430.75;5023918;28;45351;-77
2023/10/07 06:04:39;;;;;;;;;14.00;13.00;;;;;11.41;100.00;102391.50;5023621;28;45478;-77
2023/10/07 06:07:07;;;;;;;;;14.33;14.00;;;;;11.60;100.00;102424.56;5031151;28;45497;-76
2023/10/07 06:09:32;;;;;;;;;17.00;14.33;;;;;11.51;100.00;102414.19;5025405;28;45562;-76
2023/10/07 06:11:59;;;;;;;;;14.67;13.67;;;;;11.56;100.00;102429.97;5021438;28;45388;-77
2023/10/07 06:14:25;;;;;;;;;13.33;13.33;;;;;11.63;100.00;102435.06;5034117;28;45527;-77
2023/10/07 06:16:52;;;;;;;;;17.67;16.33;;;;;11.62;100.00;102438.63;5022799;28;45523;-76
2023/10/07 06:19:18;;;;;;;;;14.67;14.00;;;;;11.62;100.00;102437.75;5028511;28;45485;-76
2023/10/07 06:21:52;;;;;;;;;16.33;11.67;;;;;11.47;100.00;102416.06;5027307;28;47137;-76
2023/10/07 06:24:24;;;;;;;;;14.67;13.67;;;;;11.65;100.00;102437.69;5020373;28;45345;-77
2023/10/07 06:26:51;;;;;;;;;12.33;11.00;;;;;11.71;100.00;102437.56;5026879;28;45655;-77
2023/10/07 06:29:19;;;;;;;;;15.33;12.00;;;;;11.74;100.00;102442.78;5026627;28;45527;-77
2023/10/07 06:34:32;;;;;;;;;15.67;15.67;;;;;11.60;100.00;102411.31;5031467;28;45430;-77
2023/10/07 06:36:59;;;;;;;;;16.33;15.00;;;;;11.72;100.00;102426.91;5021130;28;46617;-79
2023/10/07 06:39:27;;;;;;;;;13.00;11.00;;;;;11.68;100.00;102435.81;5028275;28;46484;-79
2023/10/07 06:41:55;;;;;;;;;14.00;12.67;;;;;11.88;100.00;102454.75;5048790;28;45497;-77
2023/10/07 06:44:23;;;;;;;;;18.00;15.00;;;;;11.84;100.00;102445.19;5018394;28;45356;-77
2023/10/07 06:46:54;;;;;;;;;17.00;14.00;;;;;11.81;100.00;102431.97;5018396;28;45377;-79
2023/10/07 06:49:20;;;;;;;;;18.67;15.33;;;;;11.92;100.00;102445.81;5036564;28;47389;-78
2023/10/07 06:51:53;;;;;;;;;19.00;17.00;;;;;12.00;100.00;102445.63;5024727;28;46082;-78
2023/10/07 06:54:19;;;;;;;;;17.00;16.67;;;;;12.06;100.00;102458.72;5036176;28;45332;-79
2023/10/07 06:56:45;;;;;;;;;14.33;14.00;;;;;12.09;100.00;102460.41;5043281;28;45955;-78
2023/10/07 06:59:16;;;;;;;;;13.67;12.33;;;;;12.14;100.00;102461.19;5031506;28;45960;-78
2023/10/07 07:04:10;;;;;;;;;13.00;13.00;;;;;12.23;100.00;102452.97;5034431;28;45564;-77
2023/10/07 07:06:43;;;;;;;;;17.33;15.00;;;;;12.06;100.00;102431.31;5039698;28;45707;-77
2023/10/07 07:09:41;;;;;;;;;16.67;14.67;;;;;11.86;100.00;102379.72;5022791;28;48065;-77
2023/10/07 07:11:59;;;;;;;;;16.67;16.00;;;;;12.11;100.00;102418.78;5036626;28;45248;-77
2023/10/07 07:14:30;;;;;;;;;15.00;14.00;;;;;12.31;100.00;102443.88;5043812;28;45408;-78
2023/10/07 07:16:57;;;;;;;;;17.67;14.33;;;;;11.96;100.00;102389.16;5041557;28;45722;-78
2023/10/07 07:19:25;;;;;;;;;13.67;13.00;;;;;12.11;100.00;102402.88;5041390;28;47396;-76
2023/10/07 07:21:51;;;;;;;;;20.67;15.67;;;;;12.19;100.00;102393.81;5032966;28;45790;-75
2023/10/07 07:24:24;;;;;;;;;19.67;14.00;;;;;12.25;100.00;102404.25;5043352;28;45678;-75
2023/10/07 07:26:53;;;;;;;;;13.00;13.00;;;;;12.32;100.00;102413.78;5040350;28;45520;-75
2023/10/07 07:29:23;;;;;;;;;19.67;17.00;;;;;12.43;100.00;102422.28;5036436;28;48189;-75
2023/10/07 07:31:49;;;;;;;;;0.00;0.00;;;;;12.84;100.00;102497.19;5038016;28;45450;-77
2023/10/07 07:34:27;;;;;;;;;23.00;19.67;;;;;12.80;100.00;102468.97;5045773;28;45496;-77
2023/10/07 07:37:01;;;;;;;;;17.33;17.00;;;;;12.75;100.00;102450.56;5045406;28;45359;-77
2023/10/07 07:39:30;;;;;;;;;19.00;17.00;;;;;12.82;100.00;102437.97;5052622;28;47528;-77
2023/10/07 07:42:15;;;;;;;;;18.67;14.67;;;;;12.82;100.00;102441.50;5038676;28;45318;-77
2023/10/07 07:45:01;;;;;;;;;22.33;19.00;;;;;12.53;100.00;102367.19;5046922;28;45445;-76
2023/10/07 07:47:31;;;;;;;;;23.00;20.00;;;;;12.88;100.00;102414.75;5040110;28;45471;-75
2023/10/07 07:49:57;;;;;;;;;21.25;18.50;;;;;13.02;100.00;102436.41;5028558;28;45614;-77
2023/10/07 07:52:25;;;;;;;;;22.33;18.33;;;;;12.95;100.00;102400.38;5039485;28;45284;-77
2023/10/07 07:54:53;;;;;;;;;19.33;19.00;;;;;13.42;100.00;102489.19;5030223;28;45521;-78
2023/10/07 07:57:24;;;;;;;;;20.00;18.67;;;;;13.44;100.00;102467.91;5031699;28;45537;-77
2023/10/07 07:59:50;;;;;;;;;22.67;19.00;;;;;13.70;100.00;102513.13;5041371;28;47239;-77
2023/10/07 08:02:18;;;;;;;;;16.50;15.00;;;;;13.84;100.00;102510.00;5037771;28;45494;-75
2023/10/07 08:04:50;;;;;;;;;19.33;18.33;;;;;13.85;100.00;102498.41;5036717;28;45572;-78
2023/10/07 08:09:53;;;;;;;;;22.00;19.67;;;;;14.14;100.00;102505.41;5033980;28;45317;-78
2023/10/07 08:12:38;;;;;;;;;21.25;20.00;;;;;14.15;100.00;102483.19;5050109;28;45523;-77
2023/10/07 08:17:40;;;;;;;;;24.33;20.67;;;;;14.23;100.00;102463.38;5035418;28;45431;-75
2023/10/07 08:20:15;;;;;;;;;22.33;20.33;;;;;14.15;100.00;102430.84;5038870;28;46829;-75
2023/10/07 08:22:46;;;;;;;;;19.67;18.33;;;;;14.47;100.00;102488.25;5041559;28;45466;-75
2023/10/07 08:28:17;;;;;;;;;16.67;14.33;;;;;14.82;100.00;102501.13;5040255;28;45529;-75
2023/10/07 08:30:46;;;;;;;;;20.67;16.33;;;;;14.60;100.00;102439.84;5039786;28;47268;-78
2023/10/07 08:33:22;;;;;;;;;20.00;18.67;;;;;14.71;100.00;102436.78;5044041;28;45541;-75
2023/10/07 08:35:47;;;;;;;;;14.33;14.33;;;;;15.52;100.00;102554.41;5039469;28;45328;-76
2023/10/07 08:38:29;;;;;;;;;16.33;15.67;;;;;15.34;100.00;102480.47;5030563;28;45238;-76
2023/10/07 08:41:26;;;;;;;;;18.00;16.67;;;;;15.80;100.00;102536.38;5049556;28;46409;-76
2023/10/07 08:44:14;;;;;;;;;19.00;16.67;;;;;15.82;100.00;102521.16;5045144;28;45422;-76
2023/10/07 08:46:52;;;;;;;;;18.33;17.00;;;;;16.12;100.00;102548.38;5039494;28;45458;-76
2023/10/07 08:52:16;;;;;;;;;17.00;16.00;;;;;15.92;100.00;102485.16;5045947;28;46904;-76
2023/10/07 08:54:44;;;;;;;;;14.00;13.00;;;;;16.25;100.00;102514.00;5047349;28;45466;-77
2023/10/07 08:57:22;;;;;;;;;12.33;12.33;;;;;16.13;100.00;102476.22;5047508;28;45843;-76
2023/10/07 09:00:00;;;;;;;;;21.00;15.00;;;;;16.13;100.00;102443.34;5039006;28;45607;-76
2023/10/07 09:02:30;;;;;;;;;17.00;13.00;;;;;16.45;99.14;102463.25;5039792;28;45641;-76
2023/10/07 09:04:59;;;;;;;;;16.33;14.67;;;;;17.11;99.53;102574.25;5039634;28;45534;-76
2023/10/07 09:07:33;;;;;;;;;14.33;13.33;;;;;16.89;95.92;102495.97;5049066;28;45502;-76
2023/10/07 09:10:28;;;;;;;;;16.33;14.00;;;;;16.78;96.35;102468.91;5037003;28;45525;-76
2023/10/07 09:13:06;;;;;;;;;14.67;13.67;;;;;17.12;95.59;102488.59;5040377;28;48205;-76
2023/10/07 09:15:36;;;;;;;;;15.00;13.00;;;;;17.57;93.96;102546.22;5042522;28;45526;-77
2023/10/07 09:18:05;;;;;;;;;16.67;13.33;;;;;17.58;91.70;102529.22;5051262;28;45478;-76
2023/10/07 09:20:42;;;;;;;;;14.00;13.00;;;;;17.43;91.69;102495.16;5049059;28;45360;-76
2023/10/07 09:23:19;;;;;;;;;13.67;13.33;;;;;17.80;90.79;102550.47;5043338;28;46188;-77
2023/10/07 09:25:55;;;;;;;;;13.33;10.67;;;;;17.71;89.42;102519.63;5038784;28;45473;-76
2023/10/07 09:28:35;;;;;;;;;15.33;13.67;;;;;17.93;89.82;102541.72;5034127;28;45273;-78
2023/10/07 09:31:12;;;;;;;;;15.00;13.00;;;;;17.94;89.23;102514.00;5044676;28;45599;-77
2023/10/07 09:33:45;;;;;;;;;13.33;10.67;;;;;17.98;89.00;102512.03;5035928;28;47490;-77
2023/10/07 09:39:16;;;;;;;;;11.67;11.00;;;;;17.80;96.44;102471.00;5039003;28;45891;-76
2023/10/07 09:41:44;;;;;;;;;15.67;12.33;;;;;17.91;88.75;102468.66;5035673;28;45370;-77
2023/10/07 09:44:28;;;;;;;;;13.67;10.67;;;;;17.81;93.26;102435.28;5045339;28;45488;-77
2023/10/07 09:46:55;;;;;;;;;13.67;12.33;;;;;18.22;91.61;102503.59;5057457;28;45484;-77
2023/10/07 09:49:36;;;;;;;;;;;;;;;;;;;;;
2023/10/07 09:52:16;;;;;;;;;14.00;12.33;;;;;18.66;88.01;102554.91;5043515;28;71757;-77
2023/10/07 09:55:19;;;;;;;;;11.33;11.33;;;;;18.72;86.49;102551.00;5051263;28;45507;-76
2023/10/07 09:58:17;;;;;;;;;13.00;12.00;;;;;18.76;86.31;102547.22;5050542;28;45739;-77
2023/10/07 10:01:05;;;;;;;;;13.33;12.33;;;;;18.65;88.89;102523.66;5042286;28;45480;-77
2023/10/07 10:04:01;;;;;;;;;11.33;10.33;;;;;18.95;85.66;102563.19;5031165;28;45481;-77
2023/10/07 10:06:51;;;;;;;;;9.33;9.33;;;;;18.91;83.88;102542.88;5035987;28;47234;-77
2023/10/07 10:09:23;;;;;;;;;8.33;8.33;;;;;18.72;86.81;102492.03;5050615;28;45365;-76
2023/10/07 10:12:18;;;;;;;;;13.00;11.00;;;;;19.05;82.02;102546.50;5041461;28;45584;-76
2023/10/07 10:17:39;;;;;;;;;11.33;9.00;;;;;18.88;81.02;102482.22;5027284;28;46196;-77
2023/10/07 10:20:18;;;;;;;;;6.33;6.33;;;;;18.87;81.24;102459.06;5041665;28;45431;-77
2023/10/07 10:22:57;;;;;;;;;7.00;7.00;;;;;19.11;78.90;102502.38;5030508;28;45554;-77
2023/10/07 10:25:37;;;;;;;;;8.00;7.00;;;;;19.36;79.17;102512.63;5034692;28;45577;-76
2023/10/07 10:28:10;;;;;;;;;8.50;6.00;;;;;19.48;77.91;102522.69;5031559;28;48819;-77
2023/10/07 10:30:53;;;;;;;;;5.33;5.33;;;;;19.63;76.55;102533.41;5047781;28;45456;-77
2023/10/07 10:33:35;;;;;;;;;6.33;5.00;;;;;19.72;77.89;102538.25;5031381;28;45224;-78
2023/10/07 10:36:01;;;;;;;;;8.00;5.67;;;;;19.64;75.81;102502.06;5041633;28;46674;-77
2023/10/07 10:38:45;;;;;;;;;6.00;6.00;;;;;19.71;75.31;102519.53;5027976;28;45560;-77
2023/10/07 10:41:11;;;;;;;;;5.00;3.67;;;;;19.47;75.03;102468.13;5031034;28;45488;-77
2023/10/07 10:43:37;;;;;;;;;8.67;5.00;;;;;19.48;78.98;102458.28;5031190;28;45762;-77
2023/10/07 10:46:07;;;;;;;;;6.00;4.67;;;;;19.69;80.01;102473.13;5041801;28;45513;-77
2023/10/07 10:48:54;;;;;;;;;7.00;6.00;;;;;19.66;77.41;102470.63;5047469;28;47073;-76
2023/10/07 10:51:19;;;;;;;;;4.00;4.00;;;;;20.21;73.39;102538.94;5025953;28;45412;-77
2023/10/07 10:53:47;;;;;;;;;8.00;5.00;;;;;19.82;73.21;102473.28;5031679;28;45377;-77
2023/10/07 10:56:16;;;;;;;;;3.33;2.67;;;;;20.17;71.85;102512.31;5027047;28;45409;-76
2023/10/07 10:58:42;;;;;;;;;5.67;5.67;;;;;20.20;72.36;102509.44;5054967;28;46045;-76
2023/10/07 11:01:10;;;;;;;;;6.00;4.33;;;;;20.09;73.08;102493.97;5029069;28;45557;-76
2023/10/07 11:03:37;;;;;;;;;5.67;4.00;;;;;19.97;72.96;102442.81;5035311;28;45377;-76
2023/10/07 11:06:06;;;;;;;;;3.00;3.00;;;;;20.51;70.91;102519.25;5031482;28;45438;-77
2023/10/07 11:08:33;;;;;;;;;5.00;3.33;;;;;20.66;73.93;102537.97;5030762;28;46118;-77
2023/10/07 11:10:58;;;;;;;;;4.33;4.00;;;;;20.61;69.10;102506.97;5037297;28;45783;-77
2023/10/07 11:13:29;;;;;;;;;5.33;4.00;;;;;20.82;71.50;102537.88;5036281;28;45444;-77
2023/10/07 11:16:09;;;;;;;;;5.67;4.33;;;;;20.77;70.94;102513.97;5043506;28;45588;-77
2023/10/07 11:18:49;;;;;;;;;;;;;;;;;;;;;
2023/10/07 11:21:24;;;;;;;;;4.00;4.00;;;;;20.52;69.55;102449.22;5029420;28;72774;-76
2023/10/07 11:23:53;;;;;;;;;5.00;5.00;;;;;20.88;68.74;102515.09;5054995;28;45459;-76
2023/10/07 11:26:20;;;;;;;;;4.67;4.67;;;;;20.68;68.88;102465.28;5041657;28;45682;-76
2023/10/07 11:28:48;;;;;;;;;4.67;4.00;;;;;20.55;70.65;102430.22;5038628;28;45525;-79
2023/10/07 11:31:20;;;;;;;;;5.00;3.33;;;;;20.60;73.35;102413.81;5037883;28;45437;-76
2023/10/07 11:33:50;;;;;;;;;6.00;5.00;;;;;21.21;70.67;102508.47;5037506;28;45393;-78
2023/10/07 11:36:16;;;;;;;;;5.00;5.00;;;;;21.16;70.28;102497.16;5044242;28;45432;-76
2023/10/07 11:38:42;;;;;;;;;5.00;5.00;;;;;21.28;68.96;102509.81;5045718;28;45497;-78
2023/10/07 11:41:10;;;;;;;;;6.67;5.67;;;;;21.35;68.75;102499.50;5039957;28;45562;-79
2023/10/07 11:43:47;;;;;;;;;5.00;5.00;;;;;21.37;71.55;102494.03;5044112;28;45286;-78
2023/10/07 11:46:13;;;;;;;;;5.00;4.00;;;;;21.36;70.49;102495.00;5037394;28;45544;-79
2023/10/07 11:48:41;;;;;;;;;4.67;4.00;;;;;21.47;67.39;102501.38;5037704;28;47428;-78
2023/10/07 11:51:09;;;;;;;;;5.00;4.00;;;;;21.50;66.82;102494.97;5047120;28;45434;-79
2023/10/07 11:53:35;;;;;;;;;6.00;6.00;;;;;21.60;66.47;102501.44;5040265;28;45363;-78
2023/10/07 11:56:05;;;;;;;;;4.67;4.67;;;;;21.63;65.63;102503.91;5038679;28;45459;-78
2023/10/07 11:58:32;;;;;;;;;5.00;4.00;;;;;21.55;67.96;102482.03;5040055;28;45506;-78
2023/10/07 12:00:57;;;;;;;;;5.00;4.00;;;;;21.75;65.75;102505.81;5035551;28;46788;-79
2023/10/07 12:03:25;;;;;;;;;7.33;4.00;;;;;21.73;65.18;102511.28;5039105;28;45642;-79
2023/10/07 12:05:50;;;;;;;;;2.00;2.00;;;;;21.59;65.69;102473.66;5044152;28;45531;-78
2023/10/07 12:08:25;;;;;;;;;4.33;4.33;;;;;21.25;65.60;102409.56;5035653;28;46465;-78
2023/10/07 12:10:51;;;;;;;;;4.33;4.00;;;;;21.53;66.50;102427.44;5050041;28;45819;-79
2023/10/07 12:13:17;;;;;;;;;5.00;4.00;;;;;22.00;66.47;102496.97;5035402;28;45533;-79
2023/10/07 12:15:50;;;;;;;;;6.00;5.00;;;;;21.74;66.33;102466.38;5050142;28;45543;-78